METAR Data
IDs: Format: Raw Decoded Include TAF

Data at: 1436 UTC 21 Apr 2021

METAR for:KDSM (Des Moines Intl, IA, US)
Text:KDSM 211354Z 34010KT 10SM FEW010 FEW026 SCT050 01/M03 A3021 RMK AO2 SNB11E48 SLP239 PRESENT WX VCSH P0000 T00111028
Temperature: 1.1°C ( 34°F)
Dewpoint: -2.8°C ( 27°F) [RH = 75%]
Pressure (altimeter):30.21 inches Hg (1023.1 mb) [Sea level pressure: 1023.9 mb]
Winds:from the NNW (340 degrees) at 12 MPH (10 knots; 5.1 m/s)
Visibility:10 or more sm (16+ km)
Ceiling:at least 12,000 feet AGL
Clouds: few clouds at 1000 feet AGL, few clouds at 2600 feet AGL, scattered clouds at 5000 feet AGL